Toernooibase
HOME | LAST IN DATABASE | RATINGS | TOURNAMENTS | NEWS | GAMES | POSITIONS | LINKS |

  
Player:  Bart Terwel 
Age: 39
KNDB-rating on 1-7-2019: 1371
Highest KNDB-rating ever: 1371
Average KNDB-rating all time: 1307 
Virtual KNDB-rating : 1376

FMJD-rating: 2260
Highest FMJD-rating ever: 2260
Average FMJD-rating all time: 2200

(Graphics FMJD-rating in period
KNDB-rating)
     .
     .
DateTournamentOpponentRatGaPtR.diff.N.percN.pts
su 14-07-2019  RotterDamsOpen ZHDB  Boudewijn van der Veen  1007 1-2364 0.9 1.8
mo 15-07-2019  RotterDamsOpen ZHDB  Jasper Daems  1316 1-155 0.58 1.15
tu 16-07-2019  RotterDamsOpen ZHDB  Ron Heusdens  1466 1-1-95 0.37 0.74
we 17-07-2019  RotterDamsOpen ZHDB  NDiaga Samb  1461 1-1-90 0.38 0.75
th 18-07-2019  RotterDamsOpen ZHDB  Anton Schotanus  1279 1-292 0.63 1.25
th 18-07-2019  RotterDamsOpen ZHDB  Anton van Berkel  1422 1-1-51 0.43 0.86
fr 19-07-2019  RotterDamsOpen ZHDB  Alexander Getmanski  1511 1-1-140 0.31 0.62
sa 20-07-2019  RotterDamsOpen ZHDB  Jan Groenendijk  1520 1-1-149 0.3 0.6
su 21-07-2019  Nijmegen Open GDB  Arnoud de Greef  1259 1-2112 0.65 1.3
mo 22-07-2019  Nijmegen Open GDB  Ludger Buijs  1047 1-1324 0.87 1.74
mo 22-07-2019  Nijmegen Open GDB  Gerwin Mollink  1160 1-2211 0.77 1.54
tu 23-07-2019  Nijmegen Open GDB  Geert van Aalten  1376 1-0-5 0.49 0.99
tu 23-07-2019  Nijmegen Open GDB  David Riupassa  1106 1-2265 0.82 1.65
we 24-07-2019  Nijmegen Open GDB  Jan van Loenen Jr.  1233 1-1138 0.69 1.37
th 25-07-2019  Nijmegen Open GDB  Shammie Kasnadi  1299 1-172 0.6 1.2
th 25-07-2019  Nijmegen Open GDB  Michel Stempher  1370 1-01 0.5 1
fr 26-07-2019  Nijmegen Open GDB  Cor Langeveld  1089 1-1282 0.84 1.68
sa 27-07-2019  Nijmegen Open GDB  Fred van Amersfoort  1021 1-2350 0.89 1.78
sa 05-10-2019  Dutch Teamcompetition KNDB  Jim Depaepe  1156 1-2215 0.77 1.55
sa 19-10-2019  Dutch Teamcompetition KNDB  Bas Messemaker  1393 1-1-22 0.47 0.94
tu 29-10-2019  Provincial Teamcompetition GDB  Henri van Hierden  1149 1-0222 0.78 1.56
sa 09-11-2019  Dutch Teamcompetition KNDB  Michael Semianiuk  1436 1-1-65 0.41 0.82
sa 23-11-2019  Dutch Teamcompetition KNDB  Marcel Monteba  1335 1-136 0.55 1.1
sa 07-12-2019  Dutch Teamcompetition KNDB  Joost Hendriksen  1325 1-146 0.56 1.13
sa 21-12-2019  Dutch Teamcompetition KNDB  Bj√∂rn Winkel  1221 1-1150 0.7 1.4
sa 04-01-2020  Dutch Teamcompetition KNDB  Harm Wiersma  1540 1-1-169 0.28 0.55
sa 11-01-2020  Semi finals Dutch Championship KNDB  Bhiem Ramdien  1383 1-1-12 0.48 0.97
sa 11-01-2020  Semi finals Dutch Championship KNDB  Han Seinhorst  1256 1-2115 0.66 1.31
sa 18-01-2020  Dutch Teamcompetition KNDB  Odin Mol  1442 1-1-71 0.4 0.8
sa 25-01-2020  Semi finals Dutch Championship KNDB  Andrew Tjon A Ong  1302 1-169 0.6 1.19
sa 25-01-2020  Semi finals Dutch Championship KNDB  Cor Westerveld  1210 1-2161 0.71 1.43
sa 01-02-2020  Dutch Teamcompetition KNDB  Rick Hakvoort  1336 1-235 0.55 1.1
sa 08-02-2020  Semi finals Dutch Championship KNDB  Frits Luteijn  1367 1-04 0.51 1.01
sa 08-02-2020  Semi finals Dutch Championship KNDB  Hein Meijer  1429 1-1-58 0.42 0.84
sa 15-02-2020  Dutch Teamcompetition KNDB  Anatoli Gantvarg  1524 1-1-153 0.3 0.59
sa 22-02-2020  Semi finals Dutch Championship KNDB  Edwin de Jager  1265 1-2106 0.64 1.29
sa 29-02-2020  Dutch Teamcompetition KNDB  Gerhard van Kampen  1242 1-1129 0.67 1.35
 Total:37-4442.96
 Correctionfactor:5 (587 g.)
 Calculation:44-42.96 x5=5.19
 Virtual rating: 1376
 Aver.rating: 1304 Perc.:0.59Diff.: 68
 TPR: 1304 +68 1372
* official KNDB-rating can be not the same as virtual rating because of new iRp-check